sensor_id;sensor_type;location;lat;lon;timestamp;pressure;altitude;pressure_sealevel;temperature
68127;BMP180;54931;52.098;21.006;2022-10-31T00:01:36;100624.80;;;6.80
68127;BMP180;54931;52.098;21.006;2022-10-31T00:04:05;100625.80;;;6.80
68127;BMP180;54931;52.098;21.006;2022-10-31T00:06:32;100623.80;;;6.80
68127;BMP180;54931;52.098;21.006;2022-10-31T00:09:03;100622.80;;;6.80
68127;BMP180;54931;52.098;21.006;2022-10-31T00:11:31;100626.80;;;6.80
68127;BMP180;54931;52.098;21.006;2022-10-31T00:13:58;100626.60;;;6.80
68127;BMP180;54931;52.098;21.006;2022-10-31T00:16:27;100631.40;;;6.74
68127;BMP180;54931;52.098;21.006;2022-10-31T00:18:58;100634.80;;;6.70
68127;BMP180;54931;52.098;21.006;2022-10-31T00:21:26;100633.20;;;6.70
68127;BMP180;54931;52.098;21.006;2022-10-31T00:23:54;100626.00;;;6.70
68127;BMP180;54931;52.098;21.006;2022-10-31T00:26:21;100624.20;;;6.70
68127;BMP180;54931;52.098;21.006;2022-10-31T00:28:48;100626.40;;;6.70
68127;BMP180;54931;52.098;21.006;2022-10-31T00:31:16;100630.00;;;6.70
68127;BMP180;54931;52.098;21.006;2022-10-31T00:33:43;100631.20;;;6.66
68127;BMP180;54931;52.098;21.006;2022-10-31T00:36:14;100632.80;;;6.60
68127;BMP180;54931;52.098;21.006;2022-10-31T00:38:43;100629.80;;;6.60
68127;BMP180;54931;52.098;21.006;2022-10-31T00:41:13;100627.60;;;6.60
68127;BMP180;54931;52.098;21.006;2022-10-31T00:43:41;100629.80;;;6.60
68127;BMP180;54931;52.098;21.006;2022-10-31T00:46:10;100629.20;;;6.60
68127;BMP180;54931;52.098;21.006;2022-10-31T00:48:38;100627.60;;;6.60
68127;BMP180;54931;52.098;21.006;2022-10-31T00:51:05;100629.80;;;6.60
68127;BMP180;54931;52.098;21.006;2022-10-31T00:53:33;100628.60;;;6.60
68127;BMP180;54931;52.098;21.006;2022-10-31T00:55:59;100630.40;;;6.60
68127;BMP180;54931;52.098;21.006;2022-10-31T00:58:27;100633.80;;;6.58
68127;BMP180;54931;52.098;21.006;2022-10-31T01:00:54;100636.00;;;6.56
68127;BMP180;54931;52.098;21.006;2022-10-31T01:03:28;100632.20;;;6.60
68127;BMP180;54931;52.098;21.006;2022-10-31T01:06:02;100634.00;;;6.60
68127;BMP180;54931;52.098;21.006;2022-10-31T01:08:29;100635.00;;;6.60
68127;BMP180;54931;52.098;21.006;2022-10-31T01:13:40;100635.40;;;6.70
68127;BMP180;54931;52.098;21.006;2022-10-31T01:16:11;100634.20;;;6.70
68127;BMP180;54931;52.098;21.006;2022-10-31T01:18:39;100635.00;;;6.70
68127;BMP180;54931;52.098;21.006;2022-10-31T01:21:09;100637.20;;;6.68
68127;BMP180;54931;52.098;21.006;2022-10-31T01:23:37;100638.40;;;6.66
68127;BMP180;54931;52.098;21.006;2022-10-31T01:26:14;100642.60;;;6.60
68127;BMP180;54931;52.098;21.006;2022-10-31T01:28:49;100640.20;;;6.60
68127;BMP180;54931;52.098;21.006;2022-10-31T01:31:19;100636.60;;;6.60
68127;BMP180;54931;52.098;21.006;2022-10-31T01:33:47;100641.20;;;6.60
68127;BMP180;54931;52.098;21.006;2022-10-31T01:36:20;100642.20;;;6.60
68127;BMP180;54931;52.098;21.006;2022-10-31T01:38:49;100639.80;;;6.58
68127;BMP180;54931;52.098;21.006;2022-10-31T01:41:20;100643.60;;;6.50
68127;BMP180;54931;52.098;21.006;2022-10-31T01:47:14;100643.60;;;6.44
68127;BMP180;54931;52.098;21.006;2022-10-31T01:49:51;100642.20;;;6.42
68127;BMP180;54931;52.098;21.006;2022-10-31T01:52:59;100646.20;;;6.46
68127;BMP180;54931;52.098;21.006;2022-10-31T01:55:34;100647.80;;;6.40
68127;BMP180;54931;52.098;21.006;2022-10-31T01:58:09;100644.40;;;6.40
68127;BMP180;54931;52.098;21.006;2022-10-31T02:00:39;100647.60;;;6.30
68127;BMP180;54931;52.098;21.006;2022-10-31T02:03:07;100644.60;;;6.30
68127;BMP180;54931;52.098;21.006;2022-10-31T02:05:35;100651.20;;;6.20
68127;BMP180;54931;52.098;21.006;2022-10-31T02:08:12;100650.60;;;6.20
68127;BMP180;54931;52.098;21.006;2022-10-31T02:11:09;100648.40;;;6.10
68127;BMP180;54931;52.098;21.006;2022-10-31T02:13:37;100645.00;;;6.04
68127;BMP180;54931;52.098;21.006;2022-10-31T02:16:05;100650.80;;;6.00
68127;BMP180;54931;52.098;21.006;2022-10-31T02:18:32;100653.40;;;6.00
68127;BMP180;54931;52.098;21.006;2022-10-31T02:24:43;100645.60;;;5.90
68127;BMP180;54931;52.098;21.006;2022-10-31T02:27:50;100645.40;;;5.90
68127;BMP180;54931;52.098;21.006;2022-10-31T02:30:25;100639.40;;;5.90
68127;BMP180;54931;52.098;21.006;2022-10-31T02:39:09;100647.40;;;5.80
68127;BMP180;54931;52.098;21.006;2022-10-31T02:44:45;100644.40;;;5.90
68127;BMP180;54931;52.098;21.006;2022-10-31T02:47:22;100645.40;;;5.90
68127;BMP180;54931;52.098;21.006;2022-10-31T02:49:59;100641.80;;;5.90
68127;BMP180;54931;52.098;21.006;2022-10-31T02:52:29;100642.20;;;5.94
68127;BMP180;54931;52.098;21.006;2022-10-31T02:54:57;100646.80;;;5.90
68127;BMP180;54931;52.098;21.006;2022-10-31T02:57:35;100647.60;;;5.90
68127;BMP180;54931;52.098;21.006;2022-10-31T03:00:07;100647.40;;;5.90
68127;BMP180;54931;52.098;21.006;2022-10-31T03:03:11;100651.40;;;5.90
68127;BMP180;54931;52.098;21.006;2022-10-31T03:05:52;100654.20;;;5.90
68127;BMP180;54931;52.098;21.006;2022-10-31T03:08:28;100658.80;;;5.92
68127;BMP180;54931;52.098;21.006;2022-10-31T03:10:59;100661.20;;;5.90
68127;BMP180;54931;52.098;21.006;2022-10-31T03:13:49;100666.80;;;5.90
68127;BMP180;54931;52.098;21.006;2022-10-31T03:16:47;100663.20;;;5.90
68127;BMP180;54931;52.098;21.006;2022-10-31T03:19:29;100668.40;;;5.90
68127;BMP180;54931;52.098;21.006;2022-10-31T03:24:40;100674.60;;;5.90
68127;BMP180;54931;52.098;21.006;2022-10-31T03:27:13;100681.60;;;5.90
68127;BMP180;54931;52.098;21.006;2022-10-31T03:29:44;100679.60;;;5.90
68127;BMP180;54931;52.098;21.006;2022-10-31T03:32:51;100680.40;;;5.88
68127;BMP180;54931;52.098;21.006;2022-10-31T03:35:24;100686.20;;;5.90
68127;BMP180;54931;52.098;21.006;2022-10-31T03:37:55;100693.40;;;5.92
68127;BMP180;54931;52.098;21.006;2022-10-31T03:40:27;100696.60;;;6.00
68127;BMP180;54931;52.098;21.006;2022-10-31T03:43:06;100691.00;;;6.10
68127;BMP180;54931;52.098;21.006;2022-10-31T03:45:43;100692.80;;;6.10
68127;BMP180;54931;52.098;21.006;2022-10-31T03:48:14;100691.00;;;6.10
68127;BMP180;54931;52.098;21.006;2022-10-31T03:53:26;100692.20;;;6.10
68127;BMP180;54931;52.098;21.006;2022-10-31T03:56:11;100691.60;;;6.10
68127;BMP180;54931;52.098;21.006;2022-10-31T03:58:57;100689.60;;;6.10
68127;BMP180;54931;52.098;21.006;2022-10-31T04:01:27;100693.80;;;6.10
68127;BMP180;54931;52.098;21.006;2022-10-31T04:03:57;100693.40;;;6.04
68127;BMP180;54931;52.098;21.006;2022-10-31T04:06:26;100690.80;;;6.00
68127;BMP180;54931;52.098;21.006;2022-10-31T04:09:02;100689.40;;;6.00
68127;BMP180;54931;52.098;21.006;2022-10-31T04:11:35;100688.40;;;5.90
68127;BMP180;54931;52.098;21.006;2022-10-31T04:14:05;100687.60;;;5.90
68127;BMP180;54931;52.098;21.006;2022-10-31T04:16:33;100687.40;;;5.80
68127;BMP180;54931;52.098;21.006;2022-10-31T04:19:01;100687.20;;;5.80
68127;BMP180;54931;52.098;21.006;2022-10-31T04:21:30;100690.60;;;5.80
68127;BMP180;54931;52.098;21.006;2022-10-31T04:23:57;100696.20;;;5.80
68127;BMP180;54931;52.098;21.006;2022-10-31T04:26:25;100693.00;;;5.80
68127;BMP180;54931;52.098;21.006;2022-10-31T04:28:52;100689.20;;;5.80
68127;BMP180;54931;52.098;21.006;2022-10-31T04:31:19;100690.60;;;5.80
68127;BMP180;54931;52.098;21.006;2022-10-31T04:33:46;100690.60;;;5.80
68127;BMP180;54931;52.098;21.006;2022-10-31T04:36:13;100689.60;;;5.80
68127;BMP180;54931;52.098;21.006;2022-10-31T04:38:40;100689.60;;;5.80
68127;BMP180;54931;52.098;21.006;2022-10-31T04:41:07;100688.60;;;5.80
68127;BMP180;54931;52.098;21.006;2022-10-31T04:43:34;100686.00;;;5.80
68127;BMP180;54931;52.098;21.006;2022-10-31T04:46:01;100688.60;;;5.78
68127;BMP180;54931;52.098;21.006;2022-10-31T04:48:28;100692.40;;;5.70
68127;BMP180;54931;52.098;21.006;2022-10-31T04:51:00;100687.40;;;5.70
68127;BMP180;54931;52.098;21.006;2022-10-31T04:53:28;100686.40;;;5.70
68127;BMP180;54931;52.098;21.006;2022-10-31T04:55:58;100692.40;;;5.66
68127;BMP180;54931;52.098;21.006;2022-10-31T04:58:27;100696.20;;;5.64
68127;BMP180;54931;52.098;21.006;2022-10-31T05:00:55;100703.00;;;5.68
68127;BMP180;54931;52.098;21.006;2022-10-31T05:03:23;100703.80;;;5.62
68127;BMP180;54931;52.098;21.006;2022-10-31T05:05:50;100705.60;;;5.60
68127;BMP180;54931;52.098;21.006;2022-10-31T05:08:17;100707.40;;;5.60
68127;BMP180;54931;52.098;21.006;2022-10-31T05:10:44;100709.60;;;5.60
68127;BMP180;54931;52.098;21.006;2022-10-31T05:13:11;100712.80;;;5.52
68127;BMP180;54931;52.098;21.006;2022-10-31T05:15:38;100711.60;;;5.50
68127;BMP180;54931;52.098;21.006;2022-10-31T05:18:05;100714.00;;;5.50
68127;BMP180;54931;52.098;21.006;2022-10-31T05:20:33;100715.00;;;5.50
68127;BMP180;54931;52.098;21.006;2022-10-31T05:23:00;100718.20;;;5.50
68127;BMP180;54931;52.098;21.006;2022-10-31T05:25:28;100718.80;;;5.40
68127;BMP180;54931;52.098;21.006;2022-10-31T05:27:57;100721.20;;;5.40
68127;BMP180;54931;52.098;21.006;2022-10-31T05:30:28;100715.00;;;5.30
68127;BMP180;54931;52.098;21.006;2022-10-31T05:32:56;100711.20;;;5.30
68127;BMP180;54931;52.098;21.006;2022-10-31T05:35:31;100719.80;;;5.30
68127;BMP180;54931;52.098;21.006;2022-10-31T05:37:59;100723.00;;;5.30
68127;BMP180;54931;52.098;21.006;2022-10-31T05:40:27;100723.80;;;5.30
68127;BMP180;54931;52.098;21.006;2022-10-31T05:42:56;100725.20;;;5.30
68127;BMP180;54931;52.098;21.006;2022-10-31T05:45:25;100726.60;;;5.30
68127;BMP180;54931;52.098;21.006;2022-10-31T05:47:58;100724.00;;;5.44
68127;BMP180;54931;52.098;21.006;2022-10-31T05:50:29;100725.00;;;5.60
68127;BMP180;54931;52.098;21.006;2022-10-31T05:53:00;100725.60;;;5.70
68127;BMP180;54931;52.098;21.006;2022-10-31T05:55:28;100725.40;;;5.78
68127;BMP180;54931;52.098;21.006;2022-10-31T05:57:56;100724.60;;;5.80
68127;BMP180;54931;52.098;21.006;2022-10-31T06:00:25;100733.20;;;6.00
68127;BMP180;54931;52.098;21.006;2022-10-31T06:03:01;100734.60;;;6.10
68127;BMP180;54931;52.098;21.006;2022-10-31T06:05:30;100733.80;;;6.20
68127;BMP180;54931;52.098;21.006;2022-10-31T06:07:58;100737.40;;;6.30
68127;BMP180;54931;52.098;21.006;2022-10-31T06:10:26;100740.40;;;6.40
68127;BMP180;54931;52.098;21.006;2022-10-31T06:12:54;100740.20;;;6.54
68127;BMP180;54931;52.098;21.006;2022-10-31T06:15:21;100739.60;;;6.70
68127;BMP180;54931;52.098;21.006;2022-10-31T06:18:01;100739.60;;;6.80
68127;BMP180;54931;52.098;21.006;2022-10-31T06:20:28;100746.00;;;6.90
68127;BMP180;54931;52.098;21.006;2022-10-31T06:22:55;100743.60;;;7.00
68127;BMP180;54931;52.098;21.006;2022-10-31T06:25:23;100749.40;;;7.10
68127;BMP180;54931;52.098;21.006;2022-10-31T06:27:50;100750.20;;;7.20
68127;BMP180;54931;52.098;21.006;2022-10-31T06:30:17;100750.00;;;7.30
68127;BMP180;54931;52.098;21.006;2022-10-31T06:32:45;100745.20;;;7.40
68127;BMP180;54931;52.098;21.006;2022-10-31T06:35:12;100749.60;;;7.40
68127;BMP180;54931;52.098;21.006;2022-10-31T06:37:39;100748.60;;;7.40
68127;BMP180;54931;52.098;21.006;2022-10-31T06:40:06;100745.60;;;7.40
68127;BMP180;54931;52.098;21.006;2022-10-31T06:42:34;100753.00;;;7.40
68127;BMP180;54931;52.098;21.006;2022-10-31T06:45:01;100750.60;;;7.50
68127;BMP180;54931;52.098;21.006;2022-10-31T06:47:28;100754.60;;;7.60
68127;BMP180;54931;52.098;21.006;2022-10-31T06:49:55;100755.20;;;7.60
68127;BMP180;54931;52.098;21.006;2022-10-31T06:52:22;100757.60;;;7.60
68127;BMP180;54931;52.098;21.006;2022-10-31T06:54:50;100754.00;;;7.60
68127;BMP180;54931;52.098;21.006;2022-10-31T06:57:17;100756.80;;;7.54
68127;BMP180;54931;52.098;21.006;2022-10-31T06:59:44;100758.60;;;7.50
68127;BMP180;54931;52.098;21.006;2022-10-31T07:02:12;100757.60;;;7.50
68127;BMP180;54931;52.098;21.006;2022-10-31T07:04:39;100758.80;;;7.50
68127;BMP180;54931;52.098;21.006;2022-10-31T07:07:06;100763.80;;;7.54
68127;BMP180;54931;52.098;21.006;2022-10-31T07:09:33;100763.20;;;7.52
68127;BMP180;54931;52.098;21.006;2022-10-31T07:12:00;100763.60;;;7.60
68127;BMP180;54931;52.098;21.006;2022-10-31T07:14:27;100756.20;;;7.60
68127;BMP180;54931;52.098;21.006;2022-10-31T07:16:54;100756.00;;;7.70
68127;BMP180;54931;52.098;21.006;2022-10-31T07:19:21;100758.20;;;7.80
68127;BMP180;54931;52.098;21.006;2022-10-31T07:21:48;100759.60;;;7.96
68127;BMP180;54931;52.098;21.006;2022-10-31T07:24:15;100758.80;;;8.06
68127;BMP180;54931;52.098;21.006;2022-10-31T07:26:42;100758.60;;;8.10
68127;BMP180;54931;52.098;21.006;2022-10-31T07:29:09;100760.20;;;8.20
68127;BMP180;54931;52.098;21.006;2022-10-31T07:31:36;100760.20;;;8.22
68127;BMP180;54931;52.098;21.006;2022-10-31T07:34:03;100766.20;;;8.32
68127;BMP180;54931;52.098;21.006;2022-10-31T07:36:30;100772.40;;;8.50
68127;BMP180;54931;52.098;21.006;2022-10-31T07:38:57;100777.20;;;8.60
68127;BMP180;54931;52.098;21.006;2022-10-31T07:41:25;100773.00;;;8.80
68127;BMP180;54931;52.098;21.006;2022-10-31T07:43:53;100777.60;;;9.00
68127;BMP180;54931;52.098;21.006;2022-10-31T07:46:22;100774.40;;;9.30
68127;BMP180;54931;52.098;21.006;2022-10-31T07:48:49;100774.00;;;9.50
68127;BMP180;54931;52.098;21.006;2022-10-31T07:51:16;100777.00;;;9.50
68127;BMP180;54931;52.098;21.006;2022-10-31T07:53:43;100776.40;;;9.66
68127;BMP180;54931;52.098;21.006;2022-10-31T07:56:10;100769.60;;;9.74
68127;BMP180;54931;52.098;21.006;2022-10-31T07:58:37;100775.20;;;9.86
68127;BMP180;54931;52.098;21.006;2022-10-31T08:01:05;100768.00;;;10.00
68127;BMP180;54931;52.098;21.006;2022-10-31T08:03:32;100771.00;;;10.20
68127;BMP180;54931;52.098;21.006;2022-10-31T08:05:59;100771.80;;;10.46
68127;BMP180;54931;52.098;21.006;2022-10-31T08:08:26;100766.20;;;10.72
68127;BMP180;54931;52.098;21.006;2022-10-31T08:10:55;100773.40;;;11.00
68127;BMP180;54931;52.098;21.006;2022-10-31T08:13:21;100778.80;;;11.00
68127;BMP180;54931;52.098;21.006;2022-10-31T08:15:49;100781.00;;;10.96
68127;BMP180;54931;52.098;21.006;2022-10-31T08:18:18;100783.20;;;10.86
68127;BMP180;54931;52.098;21.006;2022-10-31T08:20:45;100786.20;;;10.68
68127;BMP180;54931;52.098;21.006;2022-10-31T08:23:13;100786.60;;;10.50
68127;BMP180;54931;52.098;21.006;2022-10-31T08:25:41;100788.80;;;10.50
68127;BMP180;54931;52.098;21.006;2022-10-31T08:28:11;100790.40;;;10.40
68127;BMP180;54931;52.098;21.006;2022-10-31T08:30:39;100787.00;;;10.40
68127;BMP180;54931;52.098;21.006;2022-10-31T08:33:13;100791.40;;;10.36
68127;BMP180;54931;52.098;21.006;2022-10-31T08:35:41;100793.80;;;10.30
68127;BMP180;54931;52.098;21.006;2022-10-31T08:38:12;100793.80;;;10.30
68127;BMP180;54931;52.098;21.006;2022-10-31T08:40:40;100796.00;;;10.30
68127;BMP180;54931;52.098;21.006;2022-10-31T08:43:13;100801.80;;;10.40
68127;BMP180;54931;52.098;21.006;2022-10-31T08:45:42;100802.20;;;10.50
68127;BMP180;54931;52.098;21.006;2022-10-31T08:48:13;100806.00;;;10.56
68127;BMP180;54931;52.098;21.006;2022-10-31T08:50:42;100807.60;;;10.60
68127;BMP180;54931;52.098;21.006;2022-10-31T08:53:14;100810.00;;;10.60
68127;BMP180;54931;52.098;21.006;2022-10-31T08:55:43;100806.80;;;10.70
68127;BMP180;54931;52.098;21.006;2022-10-31T08:58:16;100811.00;;;10.70
68127;BMP180;54931;52.098;21.006;2022-10-31T09:00:46;100814.80;;;10.90
68127;BMP180;54931;52.098;21.006;2022-10-31T09:03:21;100813.80;;;11.20
68127;BMP180;54931;52.098;21.006;2022-10-31T09:05:50;100814.60;;;11.50
68127;BMP180;54931;52.098;21.006;2022-10-31T09:08:17;100809.00;;;11.80
68127;BMP180;54931;52.098;21.006;2022-10-31T09:10:44;100810.60;;;12.18
68127;BMP180;54931;52.098;21.006;2022-10-31T09:13:17;100809.80;;;12.58
68127;BMP180;54931;52.098;21.006;2022-10-31T09:15:48;100810.20;;;12.92
68127;BMP180;54931;52.098;21.006;2022-10-31T09:18:18;100811.40;;;13.24
68127;BMP180;54931;52.098;21.006;2022-10-31T09:20:48;100810.40;;;13.50
68127;BMP180;54931;52.098;21.006;2022-10-31T09:23:19;100813.00;;;13.70
68127;BMP180;54931;52.098;21.006;2022-10-31T09:25:50;100817.00;;;13.94
68127;BMP180;54931;52.098;21.006;2022-10-31T09:28:21;100812.60;;;14.30
68127;BMP180;54931;52.098;21.006;2022-10-31T09:30:52;100821.00;;;14.56
68127;BMP180;54931;52.098;21.006;2022-10-31T09:33:19;100816.80;;;14.64
68127;BMP180;54931;52.098;21.006;2022-10-31T09:35:47;100813.40;;;14.80
68127;BMP180;54931;52.098;21.006;2022-10-31T09:38:18;100815.60;;;15.00
68127;BMP180;54931;52.098;21.006;2022-10-31T09:49:30;100814.60;;;15.30
68127;BMP180;54931;52.098;21.006;2022-10-31T09:52:10;100813.20;;;15.40
68127;BMP180;54931;52.098;21.006;2022-10-31T09:54:49;100819.20;;;15.60
68127;BMP180;54931;52.098;21.006;2022-10-31T09:57:31;100821.80;;;15.86
68127;BMP180;54931;52.098;21.006;2022-10-31T10:00:00;100816.40;;;16.00
68127;BMP180;54931;52.098;21.006;2022-10-31T10:02:39;100820.00;;;15.98
68127;BMP180;54931;52.098;21.006;2022-10-31T10:05:26;100818.60;;;15.90
68127;BMP180;54931;52.098;21.006;2022-10-31T10:08:14;100817.60;;;15.80
68127;BMP180;54931;52.098;21.006;2022-10-31T10:17:13;100819.00;;;15.60
68127;BMP180;54931;52.098;21.006;2022-10-31T10:26:34;100811.40;;;15.68
68127;BMP180;54931;52.098;21.006;2022-10-31T10:32:33;100805.80;;;15.78
68127;BMP180;54931;52.098;21.006;2022-10-31T10:37:46;100812.40;;;15.50
68127;BMP180;54931;52.098;21.006;2022-10-31T10:40:23;100807.40;;;15.50
68127;BMP180;54931;52.098;21.006;2022-10-31T10:43:30;100803.20;;;15.40
68127;BMP180;54931;52.098;21.006;2022-10-31T10:49:26;100806.20;;;15.44
68127;BMP180;54931;52.098;21.006;2022-10-31T10:52:34;100809.80;;;15.50
68127;BMP180;54931;52.098;21.006;2022-10-31T10:55:34;100810.00;;;15.50
68127;BMP180;54931;52.098;21.006;2022-10-31T10:58:07;100807.80;;;15.40
68127;BMP180;54931;52.098;21.006;2022-10-31T11:00:42;100808.40;;;15.60
68127;BMP180;54931;52.098;21.006;2022-10-31T11:03:10;100806.20;;;15.60
68127;BMP180;54931;52.098;21.006;2022-10-31T11:08:29;100805.00;;;15.40
68127;BMP180;54931;52.098;21.006;2022-10-31T11:10:59;100805.80;;;15.30
68127;BMP180;54931;52.098;21.006;2022-10-31T11:13:28;100801.20;;;15.34
68127;BMP180;54931;52.098;21.006;2022-10-31T11:16:04;100800.80;;;15.40
68127;BMP180;54931;52.098;21.006;2022-10-31T11:18:41;100804.40;;;15.20
68127;BMP180;54931;52.098;21.006;2022-10-31T11:21:24;100799.20;;;15.22
68127;BMP180;54931;52.098;21.006;2022-10-31T11:26:40;100795.00;;;15.30
68127;BMP180;54931;52.098;21.006;2022-10-31T11:29:25;100795.20;;;15.20
68127;BMP180;54931;52.098;21.006;2022-10-31T11:31:56;100799.60;;;15.30
68127;BMP180;54931;52.098;21.006;2022-10-31T11:34:45;100799.40;;;15.40
68127;BMP180;54931;52.098;21.006;2022-10-31T11:37:17;100795.00;;;15.50
68127;BMP180;54931;52.098;21.006;2022-10-31T11:39:53;100804.00;;;15.60
68127;BMP180;54931;52.098;21.006;2022-10-31T11:42:27;100802.80;;;15.70
68127;BMP180;54931;52.098;21.006;2022-10-31T11:44:56;100803.00;;;15.70
68127;BMP180;54931;52.098;21.006;2022-10-31T11:47:28;100800.40;;;15.70
68127;BMP180;54931;52.098;21.006;2022-10-31T11:49:57;100800.00;;;15.56
68127;BMP180;54931;52.098;21.006;2022-10-31T11:52:31;100798.00;;;15.30
68127;BMP180;54931;52.098;21.006;2022-10-31T11:55:31;100804.20;;;15.20
68127;BMP180;54931;52.098;21.006;2022-10-31T11:57:58;100802.40;;;15.22
68127;BMP180;54931;52.098;21.006;2022-10-31T12:00:38;100801.60;;;15.36
68127;BMP180;54931;52.098;21.006;2022-10-31T12:06:01;100803.80;;;15.40
68127;BMP180;54931;52.098;21.006;2022-10-31T12:08:34;100800.40;;;15.30
68127;BMP180;54931;52.098;21.006;2022-10-31T12:16:55;100803.20;;;15.60
68127;BMP180;54931;52.098;21.006;2022-10-31T12:19:49;100798.60;;;15.62
68127;BMP180;54931;52.098;21.006;2022-10-31T12:25:28;100794.40;;;15.40
68127;BMP180;54931;52.098;21.006;2022-10-31T12:28:51;100790.60;;;15.40
68127;BMP180;54931;52.098;21.006;2022-10-31T12:31:49;100787.00;;;15.30
68127;BMP180;54931;52.098;21.006;2022-10-31T12:37:29;100783.00;;;15.10
68127;BMP180;54931;52.098;21.006;2022-10-31T12:43:27;100782.80;;;15.20
68127;BMP180;54931;52.098;21.006;2022-10-31T12:46:01;100781.40;;;15.40
68127;BMP180;54931;52.098;21.006;2022-10-31T12:51:57;100786.00;;;15.40
68127;BMP180;54931;52.098;21.006;2022-10-31T12:57:28;100789.00;;;15.66
68127;BMP180;54931;52.098;21.006;2022-10-31T13:05:37;100789.20;;;15.70
68127;BMP180;54931;52.098;21.006;2022-10-31T13:10:44;100787.20;;;15.90
68127;BMP180;54931;52.098;21.006;2022-10-31T13:16:17;100785.00;;;15.80
68127;BMP180;54931;52.098;21.006;2022-10-31T13:19:01;100780.60;;;15.64
68127;BMP180;54931;52.098;21.006;2022-10-31T13:21:39;100775.80;;;15.50
68127;BMP180;54931;52.098;21.006;2022-10-31T13:24:25;100776.80;;;15.40
68127;BMP180;54931;52.098;21.006;2022-10-31T13:26:58;100780.00;;;15.40
68127;BMP180;54931;52.098;21.006;2022-10-31T13:29:50;100779.80;;;15.30
68127;BMP180;54931;52.098;21.006;2022-10-31T13:32:20;100778.60;;;15.20
68127;BMP180;54931;52.098;21.006;2022-10-31T13:34:56;100775.40;;;15.20
68127;BMP180;54931;52.098;21.006;2022-10-31T13:37:39;100777.40;;;15.10
68127;BMP180;54931;52.098;21.006;2022-10-31T13:45:22;100779.60;;;14.90
68127;BMP180;54931;52.098;21.006;2022-10-31T13:50:58;100787.00;;;14.80
68127;BMP180;54931;52.098;21.006;2022-10-31T13:56:21;100784.40;;;14.50
68127;BMP180;54931;52.098;21.006;2022-10-31T14:02:00;100783.20;;;14.10
68127;BMP180;54931;52.098;21.006;2022-10-31T14:04:43;100775.60;;;13.88
68127;BMP180;54931;52.098;21.006;2022-10-31T14:07:15;100781.40;;;13.68
68127;BMP180;54931;52.098;21.006;2022-10-31T14:11:22;100783.20;;;13.50
68127;BMP180;54931;52.098;21.006;2022-10-31T14:13:32;100783.40;;;13.30
68127;BMP180;54931;52.098;21.006;2022-10-31T14:16:05;100781.40;;;13.20
68127;BMP180;54931;52.098;21.006;2022-10-31T14:18:40;100779.20;;;13.08
68127;BMP180;54931;52.098;21.006;2022-10-31T14:23:52;100776.00;;;12.78
68127;BMP180;54931;52.098;21.006;2022-10-31T14:34:50;100777.60;;;12.60
68127;BMP180;54931;52.098;21.006;2022-10-31T14:37:25;100775.40;;;12.60
68127;BMP180;54931;52.098;21.006;2022-10-31T14:43:43;100770.00;;;12.50
68127;BMP180;54931;52.098;21.006;2022-10-31T14:49:48;100770.40;;;12.40
68127;BMP180;54931;52.098;21.006;2022-10-31T14:52:18;100768.40;;;12.40
68127;BMP180;54931;52.098;21.006;2022-10-31T14:54:52;100768.40;;;12.40
68127;BMP180;54931;52.098;21.006;2022-10-31T14:57:34;100769.60;;;12.40
68127;BMP180;54931;52.098;21.006;2022-10-31T15:00:23;100766.40;;;12.40
68127;BMP180;54931;52.098;21.006;2022-10-31T15:05:56;100764.60;;;12.32
68127;BMP180;54931;52.098;21.006;2022-10-31T15:08:35;100766.60;;;12.30
68127;BMP180;54931;52.098;21.006;2022-10-31T15:11:24;100770.60;;;12.30
68127;BMP180;54931;52.098;21.006;2022-10-31T15:13:55;100771.20;;;12.30
68127;BMP180;54931;52.098;21.006;2022-10-31T15:16:32;100770.60;;;12.30
68127;BMP180;54931;52.098;21.006;2022-10-31T15:19:06;100773.20;;;12.30
68127;BMP180;54931;52.098;21.006;2022-10-31T15:21:41;100772.20;;;12.30
68127;BMP180;54931;52.098;21.006;2022-10-31T15:24:15;100774.20;;;12.30
68127;BMP180;54931;52.098;21.006;2022-10-31T15:26:49;100771.20;;;12.32
68127;BMP180;54931;52.098;21.006;2022-10-31T15:29:24;100771.60;;;12.30
68127;BMP180;54931;52.098;21.006;2022-10-31T15:32:00;100770.80;;;12.30
68127;BMP180;54931;52.098;21.006;2022-10-31T15:34:41;100771.20;;;12.28
68127;BMP180;54931;52.098;21.006;2022-10-31T15:37:17;100775.60;;;12.20
68127;BMP180;54931;52.098;21.006;2022-10-31T15:39:47;100769.40;;;12.10
68127;BMP180;54931;52.098;21.006;2022-10-31T15:42:35;100772.00;;;12.10
68127;BMP180;54931;52.098;21.006;2022-10-31T15:45:27;100773.60;;;12.08
68127;BMP180;54931;52.098;21.006;2022-10-31T15:48:02;100771.20;;;12.10
68127;BMP180;54931;52.098;21.006;2022-10-31T15:50:36;100769.00;;;12.10
68127;BMP180;54931;52.098;21.006;2022-10-31T15:53:16;100771.60;;;12.10
68127;BMP180;54931;52.098;21.006;2022-10-31T15:55:58;100771.80;;;12.10
68127;BMP180;54931;52.098;21.006;2022-10-31T15:58:27;100774.40;;;12.12
68127;BMP180;54931;52.098;21.006;2022-10-31T16:01:05;100773.20;;;12.12
68127;BMP180;54931;52.098;21.006;2022-10-31T16:03:33;100775.40;;;12.10
68127;BMP180;54931;52.098;21.006;2022-10-31T16:06:04;100783.40;;;12.10
68127;BMP180;54931;52.098;21.006;2022-10-31T16:08:49;100784.40;;;12.10
68127;BMP180;54931;52.098;21.006;2022-10-31T16:11:27;100782.80;;;12.10
68127;BMP180;54931;52.098;21.006;2022-10-31T16:16:41;100785.20;;;12.20
68127;BMP180;54931;52.098;21.006;2022-10-31T16:19:24;100784.80;;;12.20
68127;BMP180;54931;52.098;21.006;2022-10-31T16:22:10;100792.40;;;12.28
68127;BMP180;54931;52.098;21.006;2022-10-31T16:27:36;100793.60;;;12.30
68127;BMP180;54931;52.098;21.006;2022-10-31T16:30:40;100796.40;;;12.30
68127;BMP180;54931;52.098;21.006;2022-10-31T16:33:31;100791.20;;;12.30
68127;BMP180;54931;52.098;21.006;2022-10-31T16:36:31;100791.60;;;12.24
68127;BMP180;54931;52.098;21.006;2022-10-31T16:39:00;100790.20;;;12.22
68127;BMP180;54931;52.098;21.006;2022-10-31T16:41:27;100791.00;;;12.30
68127;BMP180;54931;52.098;21.006;2022-10-31T16:43:55;100786.20;;;12.30